createdAt,value
2023-03-17T00:00:02.529Z,79.02
2023-03-17T00:01:02.399Z,78.61
2023-03-17T00:02:02.387Z,78.40
2023-03-17T00:03:02.347Z,79.02
2023-03-17T00:04:02.363Z,78.81
2023-03-17T00:05:02.321Z,78.71
2023-03-17T00:06:02.303Z,79.02
2023-03-17T00:07:02.293Z,79.02
2023-03-17T00:08:02.319Z,78.92
2023-03-17T00:09:02.270Z,79.44
2023-03-17T00:10:02.248Z,79.58
2023-03-17T00:11:02.276Z,79.68
2023-03-17T00:12:02.222Z,79.58
2023-03-17T00:13:02.240Z,79.58
2023-03-17T00:14:02.213Z,79.37
2023-03-17T00:15:02.209Z,79.88
2023-03-17T00:16:02.238Z,79.88
2023-03-17T00:17:02.162Z,79.37
2023-03-17T00:18:02.180Z,79.47
2023-03-17T00:19:02.126Z,79.23
2023-03-17T00:20:02.136Z,79.33
2023-03-17T00:21:02.101Z,79.02
2023-03-17T00:22:02.105Z,79.68
2023-03-17T00:23:02.133Z,79.68
2023-03-17T00:24:02.086Z,79.58
2023-03-17T00:25:02.069Z,79.33
2023-03-17T00:26:02.052Z,79.58
2023-03-17T00:27:02.028Z,79.23
2023-03-17T00:28:02.048Z,79.44
2023-03-17T00:29:01.998Z,79.33
2023-03-17T00:30:02.005Z,79.13
2023-03-17T00:31:02.006Z,79.13
2023-03-17T00:32:01.966Z,78.71
2023-03-17T00:33:02.026Z,79.02
2023-03-17T00:34:01.944Z,79.44
2023-03-17T00:35:01.926Z,79.02
2023-03-17T00:36:01.997Z,79.02
2023-03-17T00:37:01.906Z,79.02
2023-03-17T00:38:02.195Z,78.81
2023-03-17T00:39:01.968Z,78.81
2023-03-17T00:40:01.872Z,78.81
2023-03-17T00:41:01.846Z,78.92
2023-03-17T00:42:01.855Z,78.81
2023-03-17T00:43:01.862Z,79.02
2023-03-17T00:44:01.818Z,78.81
2023-03-17T00:45:01.813Z,78.81
2023-03-17T00:46:01.784Z,79.02
2023-03-17T00:47:01.797Z,79.13
2023-03-17T00:48:01.789Z,78.81
2023-03-17T00:49:01.744Z,78.61
2023-03-17T00:50:01.731Z,78.36
2023-03-17T00:51:01.725Z,78.67
2023-03-17T00:52:01.711Z,78.88
2023-03-17T00:53:01.709Z,78.92
2023-03-17T00:54:01.670Z,79.02
2023-03-17T00:55:01.659Z,78.81
2023-03-17T00:56:01.641Z,79.23
2023-03-17T00:57:01.648Z,79.02
2023-03-17T00:58:01.653Z,79.02
2023-03-17T00:59:01.620Z,79.13
2023-03-17T01:00:01.591Z,79.13
2023-03-17T01:01:01.694Z,78.50
2023-03-17T01:02:01.617Z,78.57
2023-03-17T01:03:01.592Z,78.36
2023-03-17T01:04:01.548Z,78.16
2023-03-17T01:05:06.223Z,77.95
2023-03-17T01:06:02.508Z,78.47
2023-03-17T01:07:01.511Z,78.47
2023-03-17T01:08:01.518Z,78.26
2023-03-17T01:09:01.475Z,78.61
2023-03-17T01:10:01.530Z,78.19
2023-03-17T01:11:01.459Z,78.47
2023-03-17T01:12:01.449Z,78.67
2023-03-17T01:13:01.456Z,78.78
2023-03-17T01:14:01.423Z,79.02
2023-03-17T01:15:01.411Z,79.13
2023-03-17T01:16:01.451Z,79.13
2023-03-17T01:17:01.374Z,79.23
2023-03-17T01:18:01.403Z,78.81
2023-03-17T01:19:01.401Z,79.13
2023-03-17T01:20:01.426Z,79.02
2023-03-17T01:21:01.335Z,79.44
2023-03-17T01:22:01.305Z,79.54
2023-03-17T01:23:01.341Z,79.13
2023-03-17T01:24:01.282Z,79.33
2023-03-17T01:25:01.277Z,78.81
2023-03-17T01:26:01.414Z,79.33
2023-03-17T01:27:01.335Z,79.02
2023-03-17T01:28:04.055Z,78.92
2023-03-17T01:29:01.224Z,79.44
2023-03-17T01:30:01.214Z,79.13
2023-03-17T01:31:01.203Z,79.13
2023-03-17T01:32:01.178Z,79.33
2023-03-17T01:33:01.256Z,79.33
2023-03-17T01:34:01.187Z,79.64
2023-03-17T01:35:01.149Z,79.54
2023-03-17T01:36:01.191Z,79.33
2023-03-17T01:37:01.144Z,79.64
2023-03-17T01:38:01.130Z,79.44
2023-03-17T01:39:01.109Z,79.23
2023-03-17T01:40:01.080Z,79.54
2023-03-17T01:41:01.072Z,79.74
2023-03-17T01:42:01.062Z,79.44
2023-03-17T01:43:01.064Z,79.23
2023-03-17T01:44:01.013Z,79.44
2023-03-17T01:45:01.058Z,79.54
2023-03-17T01:46:01.051Z,79.85
2023-03-17T01:47:01.006Z,80.19
2023-03-17T01:48:01.016Z,79.78
2023-03-17T01:49:00.962Z,79.88
2023-03-17T01:50:00.942Z,79.99
2023-03-17T01:51:00.951Z,80.30
2023-03-17T01:52:00.993Z,79.99
2023-03-17T01:53:00.943Z,79.88
2023-03-17T01:54:00.896Z,79.99
2023-03-17T01:55:01.214Z,79.68
2023-03-17T01:56:01.145Z,79.54
2023-03-17T01:57:00.930Z,79.99
2023-03-17T01:58:01.171Z,79.33
2023-03-17T01:59:00.831Z,79.95
2023-03-17T02:00:00.820Z,79.85
2023-03-17T02:01:00.825Z,79.95
2023-03-17T02:02:00.800Z,79.85
2023-03-17T02:03:00.817Z,79.88
2023-03-17T02:04:00.788Z,79.85
2023-03-17T02:05:00.762Z,79.88
2023-03-17T02:06:00.732Z,79.88
2023-03-17T02:07:00.731Z,79.88
2023-03-17T02:08:00.750Z,80.30
2023-03-17T02:09:00.711Z,79.88
2023-03-17T02:10:00.685Z,79.64
2023-03-17T02:11:00.674Z,79.88
2023-03-17T02:12:00.665Z,79.88
2023-03-17T02:13:00.680Z,79.99
2023-03-17T02:14:01.341Z,80.30
2023-03-17T02:15:00.645Z,79.99
2023-03-17T02:16:00.605Z,80.19
2023-03-17T02:17:00.737Z,80.19
2023-03-17T02:18:00.650Z,80.51
2023-03-17T02:19:00.601Z,80.40
2023-03-17T02:20:00.564Z,80.61
2023-03-17T02:21:00.550Z,80.40
2023-03-17T02:22:00.545Z,80.51
2023-03-17T02:23:00.573Z,80.61
2023-03-17T02:24:00.516Z,80.51
2023-03-17T02:25:00.497Z,80.19
2023-03-17T02:26:00.652Z,80.51
2023-03-17T02:27:00.556Z,80.51
2023-03-17T02:28:00.508Z,80.61
2023-03-17T02:29:00.444Z,80.61
2023-03-17T02:30:00.442Z,80.51
2023-03-17T02:31:00.457Z,79.99
2023-03-17T02:32:00.387Z,80.61
2023-03-17T02:33:00.509Z,80.51
2023-03-17T02:34:00.370Z,80.61
2023-03-17T02:35:00.359Z,80.40
2023-03-17T02:36:00.380Z,80.30
2023-03-17T02:37:00.340Z,80.61
2023-03-17T02:38:00.378Z,80.51
2023-03-17T02:39:00.317Z,80.71
2023-03-17T02:40:00.301Z,80.71
2023-03-17T02:41:00.286Z,80.82
2023-03-17T02:42:00.269Z,80.61
2023-03-17T02:43:00.298Z,80.19
2023-03-17T02:44:00.247Z,80.61
2023-03-17T02:45:00.237Z,80.47
2023-03-17T02:46:00.230Z,80.40
2023-03-17T02:47:00.210Z,79.95
2023-03-17T02:48:00.266Z,79.95
2023-03-17T02:49:00.198Z,79.95
2023-03-17T02:50:00.362Z,80.16
2023-03-17T02:51:00.154Z,80.40
2023-03-17T02:52:00.149Z,80.19
2023-03-17T02:53:00.165Z,80.30
2023-03-17T02:54:00.454Z,80.30
2023-03-17T02:55:00.126Z,79.99
2023-03-17T02:56:00.103Z,79.99
2023-03-17T02:57:00.101Z,80.09
2023-03-17T02:58:00.096Z,80.09
2023-03-17T02:59:00.123Z,80.51
2023-03-17T03:00:00.047Z,80.61
2023-03-17T03:01:00.192Z,80.82
2023-03-17T03:02:00.032Z,80.82
2023-03-17T03:03:00.264Z,80.82
2023-03-17T03:04:00.051Z,80.92
2023-03-17T03:04:59.994Z,81.13
2023-03-17T03:06:02.116Z,80.96
2023-03-17T03:06:59.961Z,81.27
2023-03-17T03:07:59.964Z,81.06
2023-03-17T03:08:59.970Z,81.34
2023-03-17T03:09:59.929Z,81.27
2023-03-17T03:10:59.907Z,81.27
2023-03-17T03:11:59.889Z,81.58
2023-03-17T03:12:59.896Z,81.37
2023-03-17T03:13:59.896Z,81.16
2023-03-17T03:14:59.849Z,81.37
2023-03-17T03:15:59.882Z,81.48
2023-03-17T03:16:59.851Z,81.58
2023-03-17T03:17:59.817Z,81.48
2023-03-17T03:18:59.828Z,81.27
2023-03-17T03:19:59.789Z,81.16
2023-03-17T03:20:59.778Z,81.16
2023-03-17T03:21:59.854Z,81.27
2023-03-17T03:22:59.847Z,80.85
2023-03-17T03:23:59.763Z,81.37
2023-03-17T03:24:59.728Z,80.96
2023-03-17T03:25:59.739Z,81.06
2023-03-17T03:26:59.718Z,81.06
2023-03-17T03:27:59.691Z,81.16
2023-03-17T03:28:59.695Z,80.96
2023-03-17T03:29:59.657Z,81.16
2023-03-17T03:30:59.666Z,81.16
2023-03-17T03:32:00.344Z,81.27
2023-03-17T03:32:59.649Z,81.27
2023-03-17T03:33:59.637Z,81.37
2023-03-17T03:34:59.597Z,81.37
2023-03-17T03:35:59.614Z,81.48
2023-03-17T03:36:59.566Z,81.58
2023-03-17T03:37:59.548Z,81.48
2023-03-17T03:38:59.570Z,81.37
2023-03-17T03:39:59.529Z,81.58
2023-03-17T03:40:59.521Z,81.48
2023-03-17T03:41:59.514Z,81.58
2023-03-17T03:42:59.506Z,81.93
2023-03-17T03:43:59.504Z,81.82
2023-03-17T03:44:59.466Z,82.14
2023-03-17T03:45:59.443Z,82.14
2023-03-17T03:46:59.439Z,82.14
2023-03-17T03:47:59.420Z,82.14
2023-03-17T03:48:59.462Z,82.45
2023-03-17T03:49:59.392Z,82.65
2023-03-17T03:50:59.380Z,82.76
2023-03-17T03:51:59.532Z,82.86
2023-03-17T03:52:59.510Z,82.80
2023-03-17T03:53:59.559Z,82.45
2023-03-17T03:54:59.330Z,82.45
2023-03-17T03:55:59.325Z,82.24
2023-03-17T03:56:59.307Z,82.24
2023-03-17T03:57:59.279Z,82.65
2023-03-17T03:58:59.308Z,82.59
2023-03-17T03:59:59.256Z,82.76
2023-03-17T04:00:59.243Z,82.90
2023-03-17T04:01:59.227Z,83.01
2023-03-17T04:02:59.267Z,83.11
2023-03-17T04:03:59.247Z,83.22
2023-03-17T04:04:59.238Z,83.01
2023-03-17T04:05:59.182Z,82.90
2023-03-17T04:06:59.166Z,82.90
2023-03-17T04:07:59.156Z,83.01
2023-03-17T04:08:59.188Z,82.90
2023-03-17T04:09:59.950Z,83.01
2023-03-17T04:10:59.116Z,82.90
2023-03-17T04:11:59.097Z,82.90
2023-03-17T04:12:59.225Z,82.86
2023-03-17T04:13:59.250Z,82.97
2023-03-17T04:14:59.159Z,82.80
2023-03-17T04:15:59.121Z,82.70
2023-03-17T04:16:59.067Z,82.90
2023-03-17T04:17:59.032Z,82.80
2023-03-17T04:18:59.090Z,82.80
2023-03-17T04:19:58.993Z,82.90
2023-03-17T04:20:58.993Z,83.01
2023-03-17T04:21:58.970Z,83.01
2023-03-17T04:22:58.971Z,82.70
2023-03-17T04:23:58.983Z,82.80
2023-03-17T04:24:58.932Z,82.70
2023-03-17T04:25:59.017Z,82.80
2023-03-17T04:26:58.915Z,83.01
2023-03-17T04:27:58.884Z,83.11
2023-03-17T04:28:58.962Z,82.90
2023-03-17T04:29:58.862Z,82.90
2023-03-17T04:30:58.872Z,82.90
2023-03-17T04:31:58.938Z,83.11
2023-03-17T04:32:58.947Z,83.11
2023-03-17T04:33:58.846Z,83.22
2023-03-17T04:34:58.811Z,83.46
2023-03-17T04:35:58.824Z,83.46
2023-03-17T04:36:58.776Z,83.56
2023-03-17T04:37:58.770Z,83.67
2023-03-17T04:38:58.819Z,83.67
2023-03-17T04:39:58.804Z,83.56
2023-03-17T04:40:58.753Z,83.46
2023-03-17T04:41:58.727Z,83.46
2023-03-17T04:42:58.714Z,83.46
2023-03-17T04:43:58.721Z,83.56
2023-03-17T04:44:58.679Z,83.56
2023-03-17T04:45:58.757Z,83.67
2023-03-17T04:46:58.645Z,83.87
2023-03-17T04:47:58.637Z,83.87
2023-03-17T04:48:58.652Z,83.98
2023-03-17T04:49:58.628Z,83.98
2023-03-17T04:50:58.604Z,84.08
2023-03-17T04:51:58.581Z,84.19
2023-03-17T04:52:58.586Z,84.43
2023-03-17T04:53:58.585Z,84.53
2023-03-17T04:54:58.557Z,84.84
2023-03-17T04:55:58.640Z,84.64
2023-03-17T04:56:58.534Z,84.84
2023-03-17T04:57:58.501Z,84.74
2023-03-17T04:58:58.519Z,84.95
2023-03-17T04:59:58.469Z,84.95
2023-03-17T05:00:58.495Z,84.95
2023-03-17T05:01:58.488Z,84.74
2023-03-17T05:02:58.458Z,84.74
2023-03-17T05:03:58.468Z,84.53
2023-03-17T05:04:58.424Z,84.33
2023-03-17T05:05:58.367Z,84.33
2023-03-17T05:06:58.394Z,84.33
2023-03-17T05:07:58.330Z,84.33
2023-03-17T05:08:58.348Z,84.22
2023-03-17T05:09:58.299Z,84.53
2023-03-17T05:10:58.296Z,84.53
2023-03-17T05:11:58.279Z,84.74
2023-03-17T05:12:58.278Z,84.84
2023-03-17T05:13:58.288Z,85.05
2023-03-17T05:14:58.238Z,85.30
2023-03-17T05:15:58.209Z,85.10
2023-03-17T05:16:58.223Z,85.16
2023-03-17T05:17:58.191Z,85.30
2023-03-17T05:18:58.196Z,85.26
2023-03-17T05:19:58.208Z,85.05
2023-03-17T05:20:58.160Z,85.05
2023-03-17T05:21:58.140Z,85.05
2023-03-17T05:22:58.153Z,84.74
2023-03-17T05:23:58.114Z,84.91
2023-03-17T05:24:58.125Z,84.43
2023-03-17T05:25:58.086Z,84.39
2023-03-17T05:26:58.075Z,84.19
2023-03-17T05:27:58.064Z,84.08
2023-03-17T05:28:58.059Z,84.50
2023-03-17T05:29:58.061Z,84.19
2023-03-17T05:30:58.094Z,84.53
2023-03-17T05:31:58.005Z,84.33
2023-03-17T05:32:58.053Z,84.33
2023-03-17T05:33:58.003Z,84.74
2023-03-17T05:34:58.022Z,84.84
2023-03-17T05:35:57.999Z,84.84
2023-03-17T05:36:57.965Z,84.74
2023-03-17T05:37:57.931Z,84.43
2023-03-17T05:38:57.936Z,84.43
2023-03-17T05:39:57.952Z,84.64
2023-03-17T05:40:57.893Z,84.64
2023-03-17T05:41:57.894Z,85.05
2023-03-17T05:42:57.893Z,84.95
2023-03-17T05:43:57.853Z,84.84
2023-03-17T05:44:57.894Z,84.84
2023-03-17T05:45:57.884Z,84.95
2023-03-17T05:46:57.837Z,85.10
2023-03-17T05:47:57.800Z,85.10
2023-03-17T05:48:57.804Z,85.30
2023-03-17T05:49:57.830Z,85.30
2023-03-17T05:50:57.785Z,84.99
2023-03-17T05:51:57.751Z,85.20
2023-03-17T05:52:57.774Z,85.30
2023-03-17T05:53:57.720Z,85.20
2023-03-17T05:54:57.759Z,85.30
2023-03-17T05:55:57.704Z,85.30
2023-03-17T05:56:57.702Z,85.41
2023-03-17T05:57:57.681Z,85.41
2023-03-17T05:58:57.680Z,85.72
2023-03-17T05:59:57.692Z,85.72
2023-03-17T06:00:57.664Z,85.51
2023-03-17T06:01:57.699Z,85.72
2023-03-17T06:02:57.630Z,85.72
2023-03-17T06:03:57.672Z,86.03
2023-03-17T06:05:01.775Z,85.93
2023-03-17T06:05:57.726Z,85.82
2023-03-17T06:06:57.565Z,85.82
2023-03-17T06:07:57.562Z,85.82
2023-03-17T06:08:57.561Z,85.72
2023-03-17T06:09:57.557Z,85.82
2023-03-17T06:10:57.512Z,85.61
2023-03-17T06:11:57.502Z,85.93
2023-03-17T06:12:57.492Z,85.72
2023-03-17T06:13:57.481Z,85.72
2023-03-17T06:14:57.501Z,85.57
2023-03-17T06:15:57.509Z,85.57
2023-03-17T06:16:57.438Z,85.47
2023-03-17T06:17:57.432Z,85.36
2023-03-17T06:18:57.443Z,85.36
2023-03-17T06:19:57.422Z,85.05
2023-03-17T06:20:57.400Z,85.22
2023-03-17T06:21:57.370Z,85.02
2023-03-17T06:23:04.446Z,84.56
2023-03-17T06:23:59.227Z,83.69
2023-03-17T06:24:57.383Z,83.07
2023-03-17T06:25:57.311Z,82.31
2023-03-17T06:26:57.322Z,81.75
2023-03-17T06:27:57.314Z,81.54
2023-03-17T06:28:57.289Z,80.68
2023-03-17T06:29:57.298Z,79.95
2023-03-17T06:30:57.388Z,80.26
2023-03-17T06:32:01.507Z,80.36
2023-03-17T06:32:58.306Z,80.57
2023-03-17T06:33:57.221Z,81.02
2023-03-17T06:34:57.419Z,80.78
2023-03-17T06:35:57.253Z,80.57
2023-03-17T06:36:57.179Z,80.88
2023-03-17T06:37:57.162Z,80.71
2023-03-17T06:38:57.157Z,80.61
2023-03-17T06:39:57.174Z,80.78
2023-03-17T06:40:57.136Z,80.88
2023-03-17T06:41:57.115Z,80.68
2023-03-17T06:42:57.144Z,80.71
2023-03-17T06:43:57.078Z,80.92
2023-03-17T06:44:57.096Z,80.68
2023-03-17T06:45:57.080Z,80.82
2023-03-17T06:46:57.121Z,80.51
2023-03-17T06:47:57.057Z,80.51
2023-03-17T06:48:57.026Z,80.51
2023-03-17T06:49:57.041Z,80.61
2023-03-17T06:50:57.005Z,80.36
2023-03-17T06:51:56.988Z,80.05
2023-03-17T06:52:56.979Z,80.16
2023-03-17T06:53:56.955Z,80.47
2023-03-17T06:54:56.973Z,79.95
2023-03-17T06:55:56.964Z,79.85
2023-03-17T06:56:56.927Z,79.50
2023-03-17T06:57:56.934Z,79.60
2023-03-17T06:58:56.910Z,79.09
2023-03-17T06:59:56.912Z,79.26
2023-03-17T07:00:56.953Z,78.64
2023-03-17T07:01:56.900Z,78.12
2023-03-17T07:02:56.927Z,78.33
2023-03-17T07:03:56.845Z,77.81
2023-03-17T07:04:56.882Z,77.91
2023-03-17T07:05:56.809Z,77.81
2023-03-17T07:06:56.808Z,77.60
2023-03-17T07:07:56.775Z,77.60
2023-03-17T07:08:56.766Z,77.29
2023-03-17T07:09:57.414Z,77.50
2023-03-17T07:10:56.741Z,77.29
2023-03-17T07:11:56.749Z,77.91
2023-03-17T07:12:56.728Z,77.67
2023-03-17T07:13:56.698Z,77.26
2023-03-17T07:14:56.710Z,77.98
2023-03-17T07:15:58.525Z,77.56
2023-03-17T07:16:56.678Z,77.36
2023-03-17T07:17:56.667Z,77.67
2023-03-17T07:18:56.632Z,77.56
2023-03-17T07:19:56.658Z,77.36
2023-03-17T07:20:56.617Z,77.05
2023-03-17T07:21:56.595Z,77.05
2023-03-17T07:22:56.581Z,76.91
2023-03-17T07:23:56.702Z,76.74
2023-03-17T07:24:56.704Z,76.60
2023-03-17T07:25:56.768Z,77.12
2023-03-17T07:26:56.572Z,76.60
2023-03-17T07:27:56.626Z,77.33
2023-03-17T07:28:56.541Z,76.70
2023-03-17T07:29:56.522Z,75.88
2023-03-17T07:30:56.498Z,75.67
2023-03-17T07:31:57.249Z,75.84
2023-03-17T07:32:56.530Z,75.26
2023-03-17T07:33:57.400Z,75.32
2023-03-17T07:34:56.509Z,75.63
2023-03-17T07:35:56.511Z,75.22
2023-03-17T07:36:56.444Z,75.32
2023-03-17T07:37:56.452Z,74.98
2023-03-17T07:38:56.524Z,75.09
2023-03-17T07:39:56.499Z,74.67
2023-03-17T07:40:56.447Z,74.98
2023-03-17T07:41:56.956Z,75.19
2023-03-17T07:42:56.394Z,74.84
2023-03-17T07:43:56.762Z,74.74
2023-03-17T07:44:56.403Z,74.74
2023-03-17T07:45:58.248Z,74.63
2023-03-17T07:46:56.359Z,73.36
2023-03-17T07:47:56.364Z,73.57
2023-03-17T07:48:56.947Z,73.22
2023-03-17T07:49:56.527Z,72.92
2023-03-17T07:50:56.446Z,72.27
2023-03-17T07:51:56.370Z,72.16
2023-03-17T07:52:56.348Z,71.78
2023-03-17T07:53:56.902Z,71.14
2023-03-17T07:54:56.252Z,69.90
2023-03-17T07:55:56.185Z,69.66
2023-03-17T07:56:56.182Z,68.84
2023-03-17T07:57:56.270Z,68.43
2023-03-17T07:58:56.233Z,68.29
2023-03-17T07:59:56.198Z,68.05
2023-03-17T08:00:56.177Z,68.05
2023-03-17T08:01:56.141Z,67.95
2023-03-17T08:03:09.313Z,67.54
2023-03-17T08:03:57.186Z,68.57
2023-03-17T08:04:56.157Z,67.95
2023-03-17T08:05:56.126Z,67.41
2023-03-17T08:06:56.104Z,66.89
2023-03-17T08:07:56.039Z,67.82
2023-03-17T08:08:56.103Z,66.79
2023-03-17T08:09:56.102Z,66.96
2023-03-17T08:10:56.071Z,66.42
2023-03-17T08:11:56.004Z,66.73
2023-03-17T08:12:56.133Z,65.91
2023-03-17T08:13:55.975Z,66.01
2023-03-17T08:14:55.975Z,65.26
2023-03-17T08:15:56.005Z,65.16
2023-03-17T08:16:56.007Z,65.20
2023-03-17T08:17:55.852Z,64.35
2023-03-17T08:18:55.895Z,63.02
2023-03-17T08:19:55.894Z,62.68
2023-03-17T08:20:55.933Z,62.65
2023-03-17T08:21:55.827Z,61.91
2023-03-17T08:22:55.827Z,60.85
2023-03-17T08:23:55.772Z,60.14
2023-03-17T08:24:55.927Z,61.57
2023-03-17T08:25:55.776Z,60.35
2023-03-17T08:26:55.760Z,60.65
2023-03-17T08:27:55.730Z,60.65
2023-03-17T08:28:55.725Z,60.31
2023-03-17T08:29:55.699Z,59.19
2023-03-17T08:30:55.790Z,58.68
2023-03-17T08:31:55.713Z,60.72
2023-03-17T08:32:55.729Z,59.78
2023-03-17T08:33:55.664Z,59.37
2023-03-17T08:34:55.634Z,59.98
2023-03-17T08:35:55.693Z,60.16
2023-03-17T08:36:55.751Z,59.14
2023-03-17T08:37:56.276Z,59.95
2023-03-17T08:38:55.581Z,58.93
2023-03-17T08:39:55.573Z,60.05
2023-03-17T08:40:55.582Z,58.93
2023-03-17T08:41:55.616Z,59.57
2023-03-17T08:42:55.531Z,59.57
2023-03-17T08:43:55.508Z,59.50
2023-03-17T08:44:55.513Z,60.44
2023-03-17T08:45:55.543Z,60.85
2023-03-17T08:46:55.494Z,60.42
2023-03-17T08:47:55.460Z,61.10
2023-03-17T08:48:55.454Z,59.47
2023-03-17T08:49:55.433Z,59.47
2023-03-17T08:50:55.452Z,60.08
2023-03-17T08:51:55.403Z,59.88
2023-03-17T08:52:55.393Z,59.78
2023-03-17T08:53:55.393Z,59.88
2023-03-17T08:54:55.382Z,60.21
2023-03-17T08:55:55.383Z,59.80
2023-03-17T08:56:55.371Z,60.96
2023-03-17T08:57:55.328Z,60.52
2023-03-17T08:58:55.328Z,61.51
2023-03-17T08:59:55.305Z,60.46
2023-03-17T09:00:55.368Z,59.62
2023-03-17T09:01:55.346Z,59.03
2023-03-17T09:02:55.492Z,59.57
2023-03-17T09:03:55.370Z,60.72
2023-03-17T09:04:55.253Z,60.83
2023-03-17T09:05:55.411Z,61.51
2023-03-17T09:07:03.374Z,62.13
2023-03-17T09:07:56.556Z,60.26
2023-03-17T09:08:55.468Z,59.34
2023-03-17T09:09:55.172Z,60.53
2023-03-17T09:10:55.492Z,59.39
2023-03-17T09:11:55.276Z,59.18
2023-03-17T09:12:55.154Z,58.78
2023-03-17T09:13:55.406Z,58.64
2023-03-17T09:14:55.245Z,58.23
2023-03-17T09:15:55.797Z,59.03
2023-03-17T09:16:55.283Z,57.12
2023-03-17T09:17:56.046Z,57.29
2023-03-17T09:18:55.238Z,57.09
2023-03-17T09:19:55.263Z,57.29
2023-03-17T09:20:55.222Z,57.29
2023-03-17T09:21:55.010Z,57.50
2023-03-17T09:22:55.008Z,56.37
2023-03-17T09:23:54.983Z,55.89
2023-03-17T09:24:54.978Z,57.93
2023-03-17T09:25:54.992Z,57.60
2023-03-17T09:26:55.355Z,57.19
2023-03-17T09:27:54.941Z,56.88
2023-03-17T09:28:54.930Z,56.78
2023-03-17T09:29:54.906Z,58.11
2023-03-17T09:30:54.930Z,57.90
2023-03-17T09:31:54.885Z,57.39
2023-03-17T09:32:54.932Z,56.48
2023-03-17T09:33:54.862Z,57.29
2023-03-17T09:34:54.834Z,57.39
2023-03-17T09:35:54.889Z,56.99
2023-03-17T09:36:54.809Z,57.98
2023-03-17T09:37:54.805Z,57.17
2023-03-17T09:38:54.801Z,56.24
2023-03-17T09:39:54.805Z,55.63
2023-03-17T09:40:54.831Z,55.74
2023-03-17T09:41:54.822Z,57.34
2023-03-17T09:42:54.806Z,56.40
2023-03-17T09:43:54.714Z,55.48
2023-03-17T09:44:54.691Z,55.25
2023-03-17T09:45:54.763Z,55.05
2023-03-17T09:46:54.746Z,54.94
2023-03-17T09:47:54.678Z,55.02
2023-03-17T09:48:54.698Z,54.51
2023-03-17T09:49:54.638Z,53.90
2023-03-17T09:50:54.642Z,54.39
2023-03-17T09:51:54.611Z,54.61
2023-03-17T09:52:54.591Z,54.49
2023-03-17T09:53:54.581Z,54.51
2023-03-17T09:54:54.574Z,53.90
2023-03-17T09:55:54.590Z,54.82
2023-03-17T09:56:54.537Z,55.33
2023-03-17T09:57:54.532Z,54.08
2023-03-17T09:58:54.532Z,55.10
2023-03-17T09:59:54.542Z,54.08
2023-03-17T10:00:54.526Z,54.08
2023-03-17T10:01:54.482Z,54.59
2023-03-17T10:02:54.462Z,54.46
2023-03-17T10:03:54.595Z,53.04
2023-03-17T10:04:54.451Z,52.84
2023-03-17T10:05:54.451Z,54.57
2023-03-17T10:06:54.455Z,53.65
2023-03-17T10:07:54.417Z,52.84
2023-03-17T10:08:54.394Z,53.34
2023-03-17T10:09:54.567Z,55.86
2023-03-17T10:10:54.395Z,55.02
2023-03-17T10:11:54.341Z,54.21
2023-03-17T10:12:54.329Z,53.02
2023-03-17T10:13:54.322Z,56.06
2023-03-17T10:14:54.297Z,54.00
2023-03-17T10:15:54.350Z,52.86
2023-03-17T10:16:54.290Z,52.97
2023-03-17T10:17:54.280Z,52.53
2023-03-17T10:18:54.253Z,52.20
2023-03-17T10:19:54.262Z,50.94
2023-03-17T10:20:54.268Z,50.94
2023-03-17T10:21:54.215Z,49.83
2023-03-17T10:22:54.320Z,51.32
2023-03-17T10:23:54.172Z,49.60
2023-03-17T10:24:54.180Z,50.29
2023-03-17T10:25:54.193Z,50.01
2023-03-17T10:26:54.148Z,49.62
2023-03-17T10:27:54.132Z,51.35
2023-03-17T10:28:54.356Z,50.86
2023-03-17T10:29:54.121Z,51.67
2023-03-17T10:30:54.123Z,50.28
2023-03-17T10:31:56.231Z,51.80
2023-03-17T10:32:54.084Z,51.39
2023-03-17T10:33:54.056Z,52.69
2023-03-17T10:34:54.035Z,52.89
2023-03-17T10:35:54.073Z,50.86
2023-03-17T10:36:54.030Z,53.50
2023-03-17T10:38:08.011Z,51.07
2023-03-17T10:38:54.982Z,50.76
2023-03-17T10:39:53.975Z,52.79
2023-03-17T10:40:53.998Z,53.27
2023-03-17T10:41:53.945Z,51.62
2023-03-17T10:42:53.938Z,50.71
2023-03-17T10:43:53.923Z,50.71
2023-03-17T10:44:53.910Z,51.25
2023-03-17T10:45:54.763Z,51.17
2023-03-17T10:46:53.910Z,52.89
2023-03-17T10:47:53.865Z,51.67
2023-03-17T10:48:53.877Z,52.69
2023-03-17T10:49:53.854Z,51.88
2023-03-17T10:50:54.394Z,53.09
2023-03-17T10:51:54.004Z,51.37
2023-03-17T10:52:57.136Z,51.88
2023-03-17T10:53:54.546Z,52.94
2023-03-17T10:54:53.776Z,51.22
2023-03-17T10:55:53.793Z,52.72
2023-03-17T10:56:54.431Z,50.99
2023-03-17T10:57:53.741Z,52.11
2023-03-17T10:58:53.726Z,51.50
2023-03-17T10:59:53.749Z,52.39
2023-03-17T11:00:53.772Z,50.46
2023-03-17T11:01:53.678Z,50.46
2023-03-17T11:02:53.670Z,51.78
2023-03-17T11:03:53.704Z,50.46
2023-03-17T11:04:53.666Z,50.95
2023-03-17T11:05:53.654Z,51.55
2023-03-17T11:06:53.614Z,50.54
2023-03-17T11:07:53.599Z,50.46
2023-03-17T11:08:53.616Z,51.57
2023-03-17T11:09:53.596Z,51.70
2023-03-17T11:10:53.605Z,52.51
2023-03-17T11:11:53.570Z,51.70
2023-03-17T11:12:53.531Z,52.01
2023-03-17T11:13:53.648Z,52.01
2023-03-17T11:14:53.709Z,51.81
2023-03-17T11:15:53.508Z,53.32
2023-03-17T11:16:53.507Z,52.31
2023-03-17T11:17:53.500Z,53.19
2023-03-17T11:18:53.541Z,51.55
2023-03-17T11:19:53.619Z,52.16
2023-03-17T11:20:53.736Z,50.84
2023-03-17T11:21:53.515Z,52.06
2023-03-17T11:22:53.453Z,51.35
2023-03-17T11:23:53.519Z,51.86
2023-03-17T11:24:53.377Z,51.86
2023-03-17T11:25:53.382Z,52.14
2023-03-17T11:26:53.412Z,52.14
2023-03-17T11:27:53.842Z,51.03
2023-03-17T11:28:53.325Z,50.82
2023-03-17T11:29:53.328Z,49.89
2023-03-17T11:30:53.318Z,49.61
2023-03-17T11:31:53.340Z,50.24
2023-03-17T11:32:53.334Z,50.62
2023-03-17T11:33:53.263Z,50.62
2023-03-17T11:34:53.262Z,50.12
2023-03-17T11:35:53.318Z,50.72
2023-03-17T11:36:55.226Z,50.92
2023-03-17T11:37:53.227Z,52.21
2023-03-17T11:38:53.202Z,49.96
2023-03-17T11:39:53.355Z,49.69
2023-03-17T11:40:53.165Z,49.91
2023-03-17T11:41:53.185Z,50.62
2023-03-17T11:42:54.039Z,50.62
2023-03-17T11:43:53.136Z,52.14
2023-03-17T11:44:53.117Z,51.91
2023-03-17T11:45:53.213Z,50.98
2023-03-17T11:46:53.276Z,51.38
2023-03-17T11:47:53.092Z,50.47
2023-03-17T11:48:53.073Z,50.47
2023-03-17T11:49:53.116Z,50.80
2023-03-17T11:50:53.038Z,51.10
2023-03-17T11:51:53.072Z,50.57
2023-03-17T11:52:53.028Z,50.59
2023-03-17T11:53:53.025Z,50.42
2023-03-17T11:54:54.273Z,50.32
2023-03-17T11:55:52.983Z,51.83
2023-03-17T11:56:53.002Z,51.93
2023-03-17T11:57:52.957Z,53.55
2023-03-17T11:58:52.950Z,51.23
2023-03-17T11:59:52.933Z,51.65
2023-03-17T12:00:52.902Z,52.23
2023-03-17T12:01:53.033Z,52.54
2023-03-17T12:05:37.526Z,51.23
2023-03-17T12:06:37.509Z,52.34
2023-03-17T12:07:37.478Z,52.94
2023-03-17T12:08:37.456Z,51.12
2023-03-17T12:09:37.467Z,52.03
2023-03-17T12:10:37.438Z,51.50
2023-03-17T12:11:37.455Z,51.91
2023-03-17T12:12:37.408Z,51.50
2023-03-17T12:13:37.398Z,52.31
2023-03-17T12:14:37.388Z,51.71
2023-03-17T12:15:37.386Z,50.62
2023-03-17T12:16:37.392Z,51.23
2023-03-17T12:17:37.346Z,51.96
2023-03-17T12:18:37.383Z,50.64
2023-03-17T12:19:37.333Z,52.59
2023-03-17T12:20:37.308Z,53.47
2023-03-17T12:21:37.336Z,51.88
2023-03-17T12:22:37.307Z,52.92
2023-03-17T12:23:37.274Z,51.73
2023-03-17T12:24:37.256Z,53.34
2023-03-17T12:25:37.275Z,54.26
2023-03-17T12:26:37.309Z,53.05
2023-03-17T12:27:37.243Z,53.93
2023-03-17T12:28:37.258Z,52.61
2023-03-17T12:29:37.327Z,53.83
2023-03-17T12:30:37.194Z,52.31
2023-03-17T12:31:37.251Z,52.92
2023-03-17T12:32:37.203Z,53.93
2023-03-17T12:33:37.190Z,53.02
2023-03-17T12:34:37.129Z,54.13
2023-03-17T12:35:37.184Z,54.13
2023-03-17T12:36:37.129Z,53.72
2023-03-17T12:37:37.102Z,53.42
2023-03-17T12:38:37.099Z,54.05
2023-03-17T12:39:37.081Z,54.26
2023-03-17T12:40:37.050Z,55.27
2023-03-17T12:41:37.070Z,53.14
2023-03-17T12:42:37.080Z,55.17
2023-03-17T12:43:37.024Z,54.59
2023-03-17T12:44:36.999Z,54.89
2023-03-17T12:45:37.007Z,53.98
2023-03-17T12:46:37.068Z,55.10
2023-03-17T12:47:36.959Z,54.28
2023-03-17T12:48:36.967Z,53.47
2023-03-17T12:49:36.987Z,54.99
2023-03-17T12:50:36.922Z,54.38
2023-03-17T12:51:38.568Z,54.79
2023-03-17T12:52:36.909Z,53.37
2023-03-17T12:53:36.884Z,55.17
2023-03-17T12:54:36.883Z,54.97